Time;durP1;ratioP1;P1;durP2;ratioP2;P2;SDS_P1;SDS_P2;PMS_P1;PMS_P2;Temp;Humidity;BMP_temperature;BMP_pressure;BME280_temperature;BME280_humidity;BME280_pressure;Samples;Min_cycle;Max_cycle;Signal;HPM_P1;HPM_P2
2024/02/22 00:01:21;;;;;;;2.65;2.00;;;11.40;64.30;;;;;;4991595;28;20396;-63
2024/02/22 00:03:47;;;;;;;3.75;2.10;;;11.30;64.30;;;;;;4987350;28;20126;-63
2024/02/22 00:06:13;;;;;;;2.75;1.80;;;11.40;64.30;;;;;;4985980;28;20125;-63
2024/02/22 00:08:41;;;;;;;1.70;1.60;;;11.40;64.20;;;;;;4986157;28;20046;-63
2024/02/22 00:11:07;;;;;;;5.57;1.70;;;11.40;64.10;;;;;;4983914;28;20030;-62
2024/02/22 00:13:33;;;;;;;2.13;1.70;;;11.50;64.10;;;;;;4990404;28;20034;-63
2024/02/22 00:16:02;;;;;;;1.70;1.60;;;11.50;64.00;;;;;;4982871;28;20031;-64
2024/02/22 00:18:28;;;;;;;2.08;1.60;;;11.50;64.00;;;;;;4988888;28;20037;-64
2024/02/22 00:20:54;;;;;;;2.58;1.70;;;11.50;64.00;;;;;;4991205;28;20087;-62
2024/02/22 00:23:19;;;;;;;2.58;1.67;;;11.50;63.90;;;;;;4984299;28;20535;-63
2024/02/22 00:25:45;;;;;;;4.30;1.75;;;11.50;64.00;;;;;;4981422;28;20053;-64
2024/02/22 00:28:10;;;;;;;2.15;1.50;;;11.50;63.90;;;;;;4988488;28;20034;-63
2024/02/22 00:30:36;;;;;;;1.90;1.60;;;11.50;63.80;;;;;;4985292;28;20113;-64
2024/02/22 00:33:01;;;;;;;2.13;1.58;;;11.50;63.70;;;;;;4986816;28;20038;-64
2024/02/22 00:35:28;;;;;;;2.83;1.40;;;11.50;63.60;;;;;;4988504;28;20034;-62
2024/02/22 00:37:54;;;;;;;2.25;1.63;;;11.60;63.60;;;;;;4986032;28;20035;-63
2024/02/22 00:40:19;;;;;;;3.05;1.70;;;11.60;63.60;;;;;;4990064;28;20038;-64
2024/02/22 00:42:45;;;;;;;2.35;1.70;;;11.60;63.50;;;;;;4984635;28;20027;-62
2024/02/22 00:45:11;;;;;;;1.73;1.40;;;11.60;63.50;;;;;;4988181;28;20081;-64
2024/02/22 00:47:37;;;;;;;3.53;1.50;;;11.60;63.40;;;;;;4988370;28;20030;-64
2024/02/22 00:50:03;;;;;;;2.30;1.55;;;11.60;63.40;;;;;;4980726;28;20031;-64
2024/02/22 00:52:29;;;;;;;2.38;1.73;;;11.60;63.50;;;;;;4983387;28;20031;-64
2024/02/22 00:54:55;;;;;;;6.47;1.55;;;11.60;63.30;;;;;;4979255;28;20414;-64
2024/02/22 00:57:21;;;;;;;2.25;1.50;;;11.60;63.40;;;;;;4983005;28;20031;-63
2024/02/22 00:59:46;;;;;;;2.72;1.60;;;11.60;63.40;;;;;;4990211;28;20046;-61
2024/02/22 01:02:12;;;;;;;2.33;1.40;;;11.60;63.30;;;;;;4985738;28;20098;-64
2024/02/22 01:04:37;;;;;;;3.35;1.70;;;11.60;63.30;;;;;;4988205;28;20038;-64
2024/02/22 01:07:03;;;;;;;2.50;1.50;;;11.60;63.30;;;;;;4982811;28;20481;-64
2024/02/22 01:09:29;;;;;;;4.05;1.58;;;11.60;63.20;;;;;;4986088;28;20041;-64
2024/02/22 01:11:54;;;;;;;2.70;1.60;;;11.60;63.30;;;;;;4988312;28;20038;-62
2024/02/22 01:14:20;;;;;;;2.35;1.73;;;11.60;63.20;;;;;;4981750;28;20047;-63
2024/02/22 01:16:48;;;;;;;1.60;1.15;;;11.60;64.00;;;;;;4980648;28;20043;-63
2024/02/22 01:19:14;;;;;;;1.50;1.30;;;11.60;63.20;;;;;;4978299;28;20498;-63
2024/02/22 01:21:40;;;;;;;1.63;1.50;;;11.70;63.20;;;;;;4981363;28;20413;-63
2024/02/22 01:24:05;;;;;;;1.92;1.30;;;11.70;64.00;;;;;;4984297;28;20030;-64
2024/02/22 01:26:31;;;;;;;1.40;1.30;;;11.70;63.10;;;;;;4985522;28;20326;-63
2024/02/22 01:28:56;;;;;;;1.63;1.48;;;11.70;63.00;;;;;;4981668;28;20054;-64
2024/02/22 01:31:22;;;;;;;1.40;1.30;;;11.70;62.90;;;;;;4980932;28;20109;-62
2024/02/22 01:33:48;;;;;;;3.33;1.27;;;11.70;62.70;;;;;;4985679;28;20122;-64
2024/02/22 01:36:13;;;;;;;2.13;1.60;;;11.80;62.70;;;;;;4986996;28;20031;-62
2024/02/22 01:38:39;;;;;;;2.00;1.30;;;11.80;62.80;;;;;;4983959;28;20413;-61
2024/02/22 01:41:05;;;;;;;2.85;1.75;;;11.80;62.70;;;;;;4979423;28;20502;-63
2024/02/22 01:43:31;;;;;;;1.83;1.35;;;11.80;62.40;;;;;;4977242;28;20026;-63
2024/02/22 01:45:57;;;;;;;1.95;1.30;;;11.80;62.40;;;;;;4977876;28;20035;-63
2024/02/22 01:48:23;;;;;;;2.80;1.58;;;11.90;62.40;;;;;;4986994;28;20112;-63
2024/02/22 01:50:54;;;;;;;2.33;1.33;;;11.90;62.30;;;;;;4984694;28;20629;-63
2024/02/22 01:53:21;;;;;;;1.52;1.38;;;11.90;62.10;;;;;;4987669;28;20438;-63
2024/02/22 01:55:47;;;;;;;2.15;1.40;;;11.90;62.00;;;;;;4986102;28;20045;-63
2024/02/22 01:58:13;;;;;;;2.03;1.40;;;12.00;62.00;;;;;;4985054;28;20034;-64
2024/02/22 02:00:41;;;;;;;1.40;1.20;;;12.00;62.00;;;;;;4986464;28;20057;-63
2024/02/22 02:03:06;;;;;;;1.85;1.45;;;12.00;62.00;;;;;;4981750;28;20031;-63
2024/02/22 02:05:32;;;;;;;3.63;1.77;;;12.00;61.90;;;;;;4978743;28;20033;-64
2024/02/22 02:07:59;;;;;;;1.63;1.33;;;12.00;61.80;;;;;;4981647;28;20034;-63
2024/02/22 02:10:24;;;;;;;3.03;1.48;;;12.10;61.90;;;;;;4976491;28;20074;-63
2024/02/22 02:12:50;;;;;;;1.95;1.48;;;12.00;61.70;;;;;;4983299;28;20113;-61
2024/02/22 02:15:15;;;;;;;1.55;1.38;;;12.10;61.80;;;;;;4983907;28;20057;-64
2024/02/22 02:17:43;;;;;;;1.73;1.40;;;12.10;61.70;;;;;;4978551;28;20034;-64
2024/02/22 02:20:10;;;;;;;1.75;1.48;;;12.10;61.70;;;;;;4984345;28;20387;-64
2024/02/22 02:22:54;;;;;;;2.60;1.30;;;12.10;61.60;;;;;;4982395;28;20501;-64
2024/02/22 02:25:19;;;;;;;2.15;1.58;;;12.10;61.20;;;;;;4982339;28;20065;-63
2024/02/22 02:27:46;;;;;;;2.63;1.50;;;12.10;61.70;;;;;;4984019;28;20096;-64
2024/02/22 02:30:12;;;;;;;2.63;1.50;;;12.10;61.70;;;;;;4978922;28;20576;-64
2024/02/22 02:32:38;;;;;;;2.08;1.70;;;12.10;61.60;;;;;;4977195;28;20038;-63
2024/02/22 02:35:04;;;;;;;2.15;1.48;;;12.10;61.30;;;;;;4982623;28;20027;-64
2024/02/22 02:37:30;;;;;;;1.70;1.60;;;12.10;61.50;;;;;;4984844;28;20038;-63
2024/02/22 02:39:55;;;;;;;2.53;1.73;;;12.10;61.50;;;;;;4986578;28;20508;-62
2024/02/22 02:42:21;;;;;;;2.47;1.65;;;12.10;61.40;;;;;;4983604;28;20045;-63
2024/02/22 02:44:47;;;;;;;2.03;1.83;;;12.10;61.40;;;;;;4985665;28;20046;-64
2024/02/22 02:47:14;;;;;;;1.90;1.58;;;12.10;61.40;;;;;;4979707;28;20039;-64
2024/02/22 02:49:40;;;;;;;2.55;1.52;;;12.20;61.50;;;;;;4983641;28;20411;-64
2024/02/22 02:52:05;;;;;;;3.22;1.70;;;12.10;61.50;;;;;;4989154;28;20035;-62
2024/02/22 02:54:31;;;;;;;2.30;1.50;;;12.20;61.50;;;;;;4982825;28;20049;-63
2024/02/22 02:56:56;;;;;;;2.17;1.52;;;12.20;61.50;;;;;;4982090;28;20462;-62
2024/02/22 02:59:22;;;;;;;3.97;1.80;;;12.20;61.30;;;;;;4976340;28;20042;-64
2024/02/22 03:01:48;;;;;;;1.67;1.40;;;12.20;61.30;;;;;;4981828;28;20399;-63
2024/02/22 03:04:16;;;;;;;1.60;1.50;;;12.20;61.30;;;;;;4987459;28;20376;-63
2024/02/22 03:06:41;;;;;;;1.85;1.50;;;12.20;61.20;;;;;;4982655;28;20357;-64
2024/02/22 03:09:07;;;;;;;3.17;1.60;;;12.20;61.40;;;;;;4983666;28;20395;-62
2024/02/22 03:11:33;;;;;;;2.33;1.60;;;12.20;61.40;;;;;;4983253;28;20130;-64
2024/02/22 03:13:58;;;;;;;2.95;1.50;;;12.20;61.70;;;;;;4988804;28;20041;-61
2024/02/22 03:16:27;;;;;;;2.20;1.45;;;12.20;61.70;;;;;;4987724;28;20117;-63
2024/02/22 03:18:53;;;;;;;2.17;1.48;;;12.30;61.70;;;;;;4987386;28;20062;-63
2024/02/22 03:21:20;;;;;;;1.98;1.45;;;12.20;61.90;;;;;;4989476;28;20116;-62
2024/02/22 03:23:46;;;;;;;2.70;1.40;;;12.20;62.10;;;;;;4987386;28;20034;-62
2024/02/22 03:26:11;;;;;;;2.13;1.45;;;12.20;62.20;;;;;;4986567;28;20030;-64
2024/02/22 03:28:37;;;;;;;1.67;1.35;;;12.20;62.60;;;;;;4990433;28;20525;-64
2024/02/22 03:31:03;;;;;;;1.38;1.27;;;12.20;62.70;;;;;;4982558;28;20506;-63
2024/02/22 03:33:29;;;;;;;1.50;1.40;;;12.20;63.10;;;;;;4984569;28;20495;-64
2024/02/22 03:35:55;;;;;;;1.35;1.25;;;12.20;63.30;;;;;;4979922;28;20035;-63
2024/02/22 03:38:21;;;;;;;3.63;1.58;;;12.20;63.60;;;;;;4987188;28;20049;-62
2024/02/22 03:40:46;;;;;;;1.45;1.30;;;12.20;63.70;;;;;;4986442;28;20042;-64
2024/02/22 03:43:13;;;;;;;1.83;1.33;;;12.20;64.00;;;;;;4986813;28;20093;-63
2024/02/22 03:45:39;;;;;;;1.38;1.17;;;12.10;64.10;;;;;;4988551;28;20402;-64
2024/02/22 03:48:06;;;;;;;2.38;1.55;;;12.10;64.30;;;;;;4984706;28;20037;-64
2024/02/22 03:50:31;;;;;;;2.60;1.35;;;12.10;64.40;;;;;;4985720;28;20038;-64
2024/02/22 03:52:57;;;;;;;3.30;1.38;;;12.10;65.00;;;;;;4988365;28;20526;-64
2024/02/22 03:55:22;;;;;;;1.55;1.23;;;12.10;65.20;;;;;;4982648;28;20034;-63
2024/02/22 03:57:48;;;;;;;1.23;1.13;;;12.00;65.40;;;;;;4987667;28;20126;-62
2024/02/22 04:00:15;;;;;;;3.65;1.55;;;12.00;65.70;;;;;;4984791;28;20057;-63
2024/02/22 04:02:48;;;;;;;2.05;1.35;;;12.00;65.90;;;;;;4982548;28;20031;-64
2024/02/22 04:05:14;;;;;;;2.08;1.50;;;11.90;66.00;;;;;;4987064;28;20434;-64
2024/02/22 04:07:42;;;;;;;2.25;1.65;;;11.90;66.30;;;;;;4989691;28;20114;-63
2024/02/22 04:10:08;;;;;;;1.73;1.45;;;11.80;66.70;;;;;;4985200;28;20031;-63
2024/02/22 04:12:34;;;;;;;2.08;1.48;;;11.80;67.10;;;;;;4982959;28;20388;-61
2024/02/22 04:15:00;;;;;;;3.20;1.30;;;11.70;68.20;;;;;;4983085;28;20039;-63
2024/02/22 04:17:26;;;;;;;1.73;1.25;;;11.70;67.70;;;;;;4987406;28;20041;-63
2024/02/22 04:19:52;;;;;;;3.05;1.70;;;11.60;68.10;;;;;;4991072;28;20088;-63
2024/02/22 04:22:18;;;;;;;2.10;1.50;;;11.60;68.40;;;;;;4986139;28;20034;-63
2024/02/22 04:24:44;;;;;;;1.30;1.15;;;11.60;68.60;;;;;;4981999;28;20039;-63
2024/02/22 04:27:09;;;;;;;1.40;1.25;;;11.50;69.00;;;;;;4981972;28;20034;-64
2024/02/22 04:29:36;;;;;;;4.13;1.50;;;11.50;69.90;;;;;;4986251;28;20516;-64
2024/02/22 04:32:01;;;;;;;1.33;1.23;;;11.40;70.10;;;;;;4990219;28;20237;-63
2024/02/22 04:34:27;;;;;;;1.90;1.40;;;11.30;70.20;;;;;;4987674;28;20113;-63
2024/02/22 04:36:53;;;;;;;1.45;1.35;;;11.30;70.60;;;;;;4990780;28;20046;-64
2024/02/22 04:39:19;;;;;;;3.10;1.70;;;11.20;70.80;;;;;;4986651;28;20027;-63
2024/02/22 04:41:44;;;;;;;2.15;1.73;;;11.20;71.30;;;;;;4990467;28;20096;-63
2024/02/22 04:44:10;;;;;;;2.25;1.60;;;11.10;71.30;;;;;;4985504;28;20031;-64
2024/02/22 04:46:36;;;;;;;4.15;1.73;;;11.10;71.80;;;;;;4981169;28;20042;-64
2024/02/22 04:49:04;;;;;;;2.22;1.88;;;11.00;71.80;;;;;;4987557;28;20181;-64
2024/02/22 04:51:31;;;;;;;2.58;1.70;;;11.00;72.60;;;;;;4984117;28;20125;-64
2024/02/22 04:53:57;;;;;;;2.83;1.90;;;11.00;72.60;;;;;;4984267;28;20035;-62
2024/02/22 04:56:23;;;;;;;2.55;1.88;;;10.90;73.00;;;;;;4990757;28;20034;-63
2024/02/22 04:58:48;;;;;;;1.98;1.65;;;10.90;73.80;;;;;;4989935;28;20530;-63
2024/02/22 05:01:14;;;;;;;2.33;1.90;;;10.70;73.40;;;;;;4989762;28;20041;-63
2024/02/22 05:03:40;;;;;;;1.90;1.70;;;10.70;73.70;;;;;;4988276;28;20027;-64
2024/02/22 05:06:05;;;;;;;5.53;2.15;;;10.70;75.10;;;;;;4986089;28;20478;-64
2024/02/22 05:08:31;;;;;;;2.28;1.80;;;10.70;74.40;;;;;;4989509;28;20038;-63
2024/02/22 05:10:57;;;;;;;2.28;1.50;;;10.60;74.70;;;;;;4984403;28;20089;-64
2024/02/22 05:13:22;;;;;;;2.10;1.90;;;10.60;75.20;;;;;;4993076;28;20038;-64
2024/02/22 05:15:48;;;;;;;2.33;1.92;;;10.50;75.60;;;;;;4985179;28;20049;-63
2024/02/22 05:18:15;;;;;;;2.50;1.77;;;10.50;75.90;;;;;;4985519;28;20121;-64
2024/02/22 05:20:41;;;;;;;2.17;1.60;;;10.40;76.10;;;;;;4985741;28;20037;-64
2024/02/22 05:23:06;;;;;;;5.05;1.85;;;10.40;76.40;;;;;;4982751;28;20093;-63
2024/02/22 05:25:33;;;;;;;2.05;1.42;;;10.40;77.00;;;;;;4982647;28;20031;-64
2024/02/22 05:27:59;;;;;;;1.90;1.40;;;10.30;77.20;;;;;;4980648;28;20042;-64
2024/02/22 05:30:25;;;;;;;2.38;1.45;;;10.30;77.30;;;;;;4979207;28;20027;-64
2024/02/22 05:32:50;;;;;;;2.55;1.50;;;10.30;78.30;;;;;;4982973;28;20038;-63
2024/02/22 05:35:16;;;;;;;2.20;1.58;;;10.30;78.60;;;;;;4984419;28;20030;-63
2024/02/22 05:37:42;;;;;;;1.90;1.50;;;10.30;78.40;;;;;;4984065;28;20129;-64
2024/02/22 05:40:08;;;;;;;2.67;1.70;;;10.30;78.90;;;;;;4987108;28;20080;-63
2024/02/22 05:42:34;;;;;;;3.13;1.40;;;10.20;80.00;;;;;;4980823;28;20065;-64
2024/02/22 05:45:00;;;;;;;3.00;1.42;;;10.20;79.80;;;;;;4983712;28;20027;-64
2024/02/22 05:47:25;;;;;;;2.13;1.60;;;10.20;79.80;;;;;;4987441;28;20034;-64
2024/02/22 05:49:51;;;;;;;1.92;1.50;;;10.20;80.30;;;;;;4982234;28;20089;-64
2024/02/22 05:52:17;;;;;;;1.92;1.60;;;10.20;80.30;;;;;;4982011;28;20038;-63
2024/02/22 05:54:45;;;;;;;2.17;1.58;;;10.20;80.60;;;;;;4984012;28;21008;-64
2024/02/22 05:57:11;;;;;;;1.77;1.67;;;10.20;81.60;;;;;;4985005;28;20084;-64
2024/02/22 05:59:37;;;;;;;1.88;1.45;;;10.10;81.20;;;;;;4984857;28;20030;-64
2024/02/22 06:02:03;;;;;;;2.20;1.60;;;10.10;81.30;;;;;;4986115;28;20509;-64
2024/02/22 06:04:28;;;;;;;2.75;1.58;;;10.10;81.30;;;;;;4987191;28;20034;-63
2024/02/22 06:06:54;;;;;;;1.88;1.70;;;10.10;81.00;;;;;;4986667;28;20038;-64
2024/02/22 06:09:19;;;;;;;1.63;1.52;;;10.10;81.70;;;;;;4986588;28;20418;-65
2024/02/22 06:11:45;;;;;;;2.53;1.70;;;10.10;82.00;;;;;;4976660;28;20042;-64
2024/02/22 06:14:10;;;;;;;2.28;1.60;;;10.00;82.30;;;;;;4982832;28;20513;-64
2024/02/22 06:16:36;;;;;;;1.48;1.38;;;10.10;82.40;;;;;;4988315;28;20038;-64
2024/02/22 06:19:02;;;;;;;2.22;1.60;;;10.00;83.10;;;;;;4985144;28;20050;-64
2024/02/22 06:21:27;;;;;;;1.88;1.60;;;10.10;82.50;;;;;;4983153;28;20042;-62
2024/02/22 06:23:53;;;;;;;2.40;1.73;;;10.00;82.50;;;;;;4985122;28;20038;-62
2024/02/22 06:26:19;;;;;;;2.80;1.60;;;10.10;82.40;;;;;;4982623;28;20034;-64
2024/02/22 06:28:44;;;;;;;1.63;1.50;;;10.00;82.40;;;;;;4983931;28;20027;-62
2024/02/22 06:31:10;;;;;;;1.77;1.30;;;10.00;82.90;;;;;;4983929;28;20106;-64
2024/02/22 06:33:37;;;;;;;1.42;1.30;;;10.00;83.00;;;;;;4988060;28;20118;-64
2024/02/22 06:36:03;;;;;;;1.63;1.20;;;10.00;83.00;;;;;;4986662;28;20034;-59
2024/02/22 06:38:29;;;;;;;2.08;1.63;;;10.00;83.30;;;;;;4985031;28;20093;-64
2024/02/22 06:40:54;;;;;;;2.08;1.58;;;10.00;83.60;;;;;;4985266;28;20037;-62
2024/02/22 06:43:20;;;;;;;2.35;1.67;;;10.00;83.50;;;;;;4985498;28;20076;-63
2024/02/22 06:45:45;;;;;;;2.65;1.25;;;10.00;83.80;;;;;;4983451;28;20050;-64
2024/02/22 06:48:11;;;;;;;2.25;1.38;;;10.00;83.80;;;;;;4987847;28;20504;-63
2024/02/22 06:50:37;;;;;;;1.48;1.35;;;10.00;84.10;;;;;;4987114;28;20258;-64
2024/02/22 06:53:02;;;;;;;1.13;1.02;;;10.00;84.00;;;;;;4987769;28;20461;-63
2024/02/22 06:55:31;;;;;;;1.30;1.20;;;10.00;84.00;;;;;;4987469;28;20035;-65
2024/02/22 06:57:56;;;;;;;1.42;1.33;;;10.00;84.50;;;;;;4988472;28;20657;-63
2024/02/22 07:00:23;;;;;;;1.38;1.00;;;10.00;84.30;;;;;;4989558;28;20125;-64
2024/02/22 07:02:49;;;;;;;1.60;1.30;;;10.00;84.20;;;;;;4989083;28;20048;-64
2024/02/22 07:05:15;;;;;;;1.77;1.33;;;10.00;84.60;;;;;;4988042;28;20176;-64
2024/02/22 07:07:41;;;;;;;2.03;1.35;;;10.00;84.50;;;;;;4988453;28;20031;-64
2024/02/22 07:10:07;;;;;;;3.30;1.10;;;10.00;84.80;;;;;;4988691;28;20604;-64
2024/02/22 07:12:33;;;;;;;0.90;0.90;;;10.00;84.70;;;;;;4983562;28;20069;-64
2024/02/22 07:14:59;;;;;;;1.75;1.20;;;10.00;85.20;;;;;;4989088;28;20116;-64
2024/02/22 07:17:24;;;;;;;1.38;0.98;;;10.00;84.90;;;;;;4988231;28;20397;-64
2024/02/22 07:19:50;;;;;;;1.25;1.15;;;10.00;85.20;;;;;;4989173;28;20034;-64
2024/02/22 07:22:17;;;;;;;1.23;1.10;;;10.00;84.90;;;;;;4989512;28;20062;-64
2024/02/22 07:24:42;;;;;;;1.65;1.00;;;10.00;85.10;;;;;;4987768;28;20037;-64
2024/02/22 07:27:09;;;;;;;1.30;1.20;;;10.00;85.00;;;;;;4988282;28;20042;-65
2024/02/22 07:29:35;;;;;;;1.38;1.27;;;10.10;84.90;;;;;;4988292;28;20133;-64
2024/02/22 07:32:00;;;;;;;1.50;1.40;;;10.00;85.30;;;;;;4988989;28;20637;-64
2024/02/22 07:34:26;;;;;;;1.40;1.30;;;10.00;85.30;;;;;;4987825;28;20042;-64
2024/02/22 07:36:51;;;;;;;1.80;1.40;;;10.10;85.30;;;;;;4988584;28;20031;-64
2024/02/22 07:39:17;;;;;;;2.30;1.75;;;10.00;85.50;;;;;;4987384;28;20065;-64
2024/02/22 07:41:43;;;;;;;2.22;1.52;;;10.00;85.30;;;;;;4988255;28;20064;-64
2024/02/22 07:44:10;;;;;;;1.55;1.45;;;10.00;85.50;;;;;;4987519;28;20078;-63
2024/02/22 07:46:36;;;;;;;1.40;1.30;;;10.00;85.50;;;;;;4984119;28;20038;-64
2024/02/22 07:49:01;;;;;;;2.00;1.38;;;10.00;85.30;;;;;;4988335;28;20041;-64
2024/02/22 07:51:27;;;;;;;2.05;1.60;;;10.00;85.40;;;;;;4988526;28;20038;-64
2024/02/22 07:53:52;;;;;;;1.60;1.50;;;10.00;85.70;;;;;;4988178;28;20035;-62
2024/02/22 07:56:18;;;;;;;1.73;1.58;;;10.00;85.80;;;;;;4989752;28;20125;-64
2024/02/22 07:58:53;;;;;;;1.88;1.40;;;10.00;86.00;;;;;;4984934;28;20030;-64
2024/02/22 08:01:19;;;;;;;2.15;1.70;;;10.00;86.40;;;;;;4989626;28;20034;-64
2024/02/22 08:03:45;;;;;;;1.85;1.33;;;10.00;86.00;;;;;;4985447;28;20108;-64
2024/02/22 08:06:12;;;;;;;2.50;1.77;;;10.00;86.00;;;;;;4986427;28;20122;-64
2024/02/22 08:08:38;;;;;;;1.75;1.60;;;10.00;86.00;;;;;;4984628;28;20502;-64
2024/02/22 08:11:05;;;;;;;3.47;2.08;;;10.00;86.30;;;;;;4985310;28;20085;-64
2024/02/22 08:13:30;;;;;;;1.70;1.60;;;10.00;86.50;;;;;;4988470;28;20494;-65
2024/02/22 08:16:08;;;;;;;2.17;1.95;;;10.00;86.40;;;;;;4987142;28;20046;-64
2024/02/22 08:18:34;;;;;;;1.80;1.70;;;10.00;87.30;;;;;;4986295;28;20122;-63
2024/02/22 08:21:01;;;;;;;2.53;1.80;;;10.00;86.20;;;;;;4985879;28;20538;-64
2024/02/22 08:23:27;;;;;;;2.90;1.83;;;10.00;86.80;;;;;;4985045;28;20038;-63
2024/02/22 08:25:53;;;;;;;2.15;1.63;;;10.00;86.60;;;;;;4983263;28;20026;-63
2024/02/22 08:28:19;;;;;;;2.25;1.65;;;10.10;86.50;;;;;;4986667;28;20042;-64
2024/02/22 08:30:45;;;;;;;2.17;1.67;;;10.00;86.40;;;;;;4988063;28;20038;-64
2024/02/22 08:33:11;;;;;;;2.03;1.70;;;10.00;86.50;;;;;;4987501;28;20034;-63
2024/02/22 08:35:37;;;;;;;1.88;1.70;;;10.10;86.60;;;;;;4985633;28;20049;-64
2024/02/22 08:38:03;;;;;;;3.53;1.52;;;10.10;86.60;;;;;;4984847;28;20517;-64
2024/02/22 08:40:28;;;;;;;3.58;1.60;;;10.10;86.40;;;;;;4987623;28;20486;-64
2024/02/22 08:42:54;;;;;;;4.60;1.52;;;10.10;86.60;;;;;;4987806;28;20038;-64
2024/02/22 08:45:20;;;;;;;1.70;1.30;;;10.10;86.60;;;;;;4988087;28;20085;-62
2024/02/22 08:47:46;;;;;;;2.20;1.70;;;10.10;86.60;;;;;;4987410;28;20565;-63
2024/02/22 08:50:14;;;;;;;2.65;1.70;;;10.10;86.50;;;;;;4987351;28;20119;-62
2024/02/22 08:52:43;;;;;;;2.28;1.48;;;10.10;86.50;;;;;;4987991;28;20035;-63
2024/02/22 08:55:13;;;;;;;3.55;1.77;;;10.10;86.40;;;;;;4984183;28;20310;-63
2024/02/22 08:57:39;;;;;;;3.10;1.98;;;10.10;86.60;;;;;;4985414;28;20038;-64
2024/02/22 09:00:06;;;;;;;3.10;1.92;;;10.10;86.80;;;;;;4987721;28;21056;-64
2024/02/22 09:02:32;;;;;;;2.97;2.45;;;10.10;86.90;;;;;;4983742;28;20525;-63
2024/02/22 09:04:58;;;;;;;3.28;2.30;;;10.20;86.80;;;;;;4984681;28;20034;-64
2024/02/22 09:07:24;;;;;;;2.90;2.60;;;10.20;86.70;;;;;;4985106;28;20045;-64
2024/02/22 09:09:51;;;;;;;2.72;2.42;;;10.20;86.70;;;;;;4984301;28;20337;-64
2024/02/22 09:12:17;;;;;;;4.35;2.53;;;10.20;86.60;;;;;;4985583;28;20058;-64
2024/02/22 09:14:42;;;;;;;3.60;2.67;;;10.20;86.70;;;;;;4982788;28;20034;-64
2024/02/22 09:17:08;;;;;;;3.47;2.78;;;10.30;86.80;;;;;;4986369;28;20049;-64
2024/02/22 09:19:34;;;;;;;4.75;3.45;;;10.20;86.80;;;;;;4985198;28;20504;-63
2024/02/22 09:22:00;;;;;;;4.22;2.78;;;10.20;86.60;;;;;;4982293;28;20048;-63
2024/02/22 09:24:27;;;;;;;3.45;2.70;;;10.30;86.40;;;;;;4985236;28;20061;-64
2024/02/22 09:26:53;;;;;;;4.13;2.85;;;10.30;86.90;;;;;;4981927;28;20510;-63
2024/02/22 09:29:19;;;;;;;3.00;2.63;;;10.30;86.60;;;;;;4987166;28;20034;-64
2024/02/22 09:31:44;;;;;;;3.92;2.70;;;10.40;86.70;;;;;;4984650;28;20521;-64
2024/02/22 09:34:10;;;;;;;2.88;2.60;;;10.30;87.40;;;;;;4984541;28;20475;-63
2024/02/22 09:36:35;;;;;;;3.05;2.75;;;10.40;86.90;;;;;;4985954;28;20038;-64
2024/02/22 09:39:03;;;;;;;3.72;2.67;;;10.40;86.60;;;;;;4985326;28;20046;-65
2024/02/22 09:41:28;;;;;;;5.32;3.15;;;10.40;86.90;;;;;;4989030;28;20031;-64
2024/02/22 09:43:56;;;;;;;3.70;2.72;;;10.40;86.80;;;;;;4988938;28;20053;-64
2024/02/22 09:46:22;;;;;;;3.53;2.65;;;10.40;87.10;;;;;;4985435;28;20034;-65
2024/02/22 09:48:48;;;;;;;2.83;2.35;;;10.40;87.10;;;;;;4986123;28;20499;-64
2024/02/22 09:51:14;;;;;;;3.33;2.50;;;10.40;87.00;;;;;;4984204;28;20042;-64
2024/02/22 09:53:40;;;;;;;3.83;2.70;;;10.50;87.20;;;;;;4985134;28;20045;-64
2024/02/22 09:56:09;;;;;;;2.60;2.40;;;10.50;87.10;;;;;;4983825;28;20420;-64
2024/02/22 09:58:35;;;;;;;4.43;2.22;;;10.50;87.50;;;;;;4983007;28;20117;-63
2024/02/22 10:01:00;;;;;;;3.03;2.30;;;10.50;87.50;;;;;;4983011;28;20133;-64
2024/02/22 10:03:37;;;;;;;2.33;2.13;;;10.50;87.60;;;;;;4986148;28;20026;-63
2024/02/22 10:06:03;;;;;;;2.70;2.28;;;10.60;87.80;;;;;;4982900;28;20034;-64
2024/02/22 10:08:29;;;;;;;2.35;1.90;;;10.60;87.50;;;;;;4983706;28;20057;-64
2024/02/22 10:11:05;;;;;;;1.95;1.77;;;10.60;88.70;;;;;;4984768;28;20066;-61
2024/02/22 10:13:33;;;;;;;1.92;1.60;;;10.70;88.20;;;;;;4982325;28;20077;-63
2024/02/22 10:16:08;;;;;;;1.70;1.60;;;10.70;87.40;;;;;;4985374;28;20038;-63
2024/02/22 10:18:35;;;;;;;2.72;1.23;;;10.70;88.30;;;;;;4984230;28;20026;-64
2024/02/22 10:21:12;;;;;;;1.60;1.50;;;10.70;87.60;;;;;;4985473;28;20092;-63
2024/02/22 10:23:37;;;;;;;1.35;1.25;;;10.70;88.10;;;;;;4984216;28;20031;-63
2024/02/22 10:26:04;;;;;;;1.48;1.10;;;10.80;87.60;;;;;;4982185;28;20108;-64
2024/02/22 10:28:30;;;;;;;1.45;1.20;;;10.80;87.60;;;;;;4986224;28;20035;-64
2024/02/22 10:31:07;;;;;;;1.20;1.10;;;10.80;87.30;;;;;;4985643;28;20085;-63
2024/02/22 10:33:37;;;;;;;1.30;1.20;;;10.80;88.10;;;;;;4987337;28;20046;-63
2024/02/22 10:36:04;;;;;;;1.20;1.10;;;10.90;87.80;;;;;;4985050;28;20260;-63
2024/02/22 10:38:30;;;;;;;1.20;1.10;;;10.90;87.60;;;;;;4984839;28;20057;-63
2024/02/22 10:40:56;;;;;;;1.00;1.00;;;10.90;87.40;;;;;;4984168;28;20039;-63
2024/02/22 10:43:23;;;;;;;0.95;0.90;;;10.90;87.40;;;;;;4983688;28;20556;-64
2024/02/22 10:45:52;;;;;;;1.52;0.95;;;11.00;87.70;;;;;;4979836;28;20037;-63
2024/02/22 10:48:20;;;;;;;1.45;1.27;;;11.00;87.50;;;;;;4988332;28;20042;-64
2024/02/22 10:50:48;;;;;;;0.98;0.98;;;11.00;87.60;;;;;;4983511;28;20544;-63
2024/02/22 10:53:15;;;;;;;1.10;0.80;;;11.00;87.80;;;;;;4988082;28;20437;-63
2024/02/22 10:55:48;;;;;;;1.13;0.85;;;11.00;87.50;;;;;;4989519;28;20033;-63
2024/02/22 10:58:15;;;;;;;1.15;0.82;;;11.10;88.00;;;;;;4982205;28;20046;-64
2024/02/22 11:00:42;;;;;;;0.98;0.90;;;11.10;87.70;;;;;;4985377;28;20066;-64
2024/02/22 11:03:11;;;;;;;0.90;0.80;;;11.20;87.30;;;;;;4983899;28;20457;-63
2024/02/22 11:05:38;;;;;;;0.80;0.70;;;11.20;87.30;;;;;;4988012;28;20459;-66
2024/02/22 11:08:04;;;;;;;1.15;0.73;;;11.20;87.20;;;;;;4988083;28;20093;-63
2024/02/22 11:10:30;;;;;;;0.55;0.50;;;11.20;87.30;;;;;;4988108;28;20034;-64
2024/02/22 11:13:03;;;;;;;0.73;0.60;;;11.30;87.20;;;;;;4990078;28;20174;-64
2024/02/22 11:15:34;;;;;;;0.60;0.60;;;11.30;87.70;;;;;;4984665;28;20447;-64
2024/02/22 11:18:00;;;;;;;0.73;0.73;;;11.30;87.40;;;;;;4990148;28;20379;-64
2024/02/22 11:20:33;;;;;;;0.70;0.70;;;11.30;87.10;;;;;;4991623;28;20084;-64
2024/02/22 11:23:09;;;;;;;2.72;0.70;;;11.30;87.40;;;;;;4988676;28;20031;-64
2024/02/22 11:25:35;;;;;;;0.60;0.60;;;11.40;87.30;;;;;;4988570;28;20097;-64
2024/02/22 11:28:01;;;;;;;0.77;0.47;;;11.30;87.40;;;;;;4987189;28;20518;-64
2024/02/22 11:30:27;;;;;;;0.60;0.60;;;11.30;87.60;;;;;;4987830;28;20031;-65
2024/02/22 11:32:53;;;;;;;0.70;0.60;;;11.40;87.90;;;;;;4988418;28;20069;-64
2024/02/22 11:35:23;;;;;;;0.93;0.40;;;11.40;87.60;;;;;;4990487;28;20027;-64
2024/02/22 11:38:05;;;;;;;0.60;0.60;;;11.40;88.10;;;;;;4991208;28;20046;-64
2024/02/22 11:40:34;;;;;;;0.60;0.52;;;11.40;88.40;;;;;;4994216;28;20051;-63
2024/02/22 11:43:02;;;;;;;0.50;0.50;;;11.40;87.60;;;;;;4991021;28;20026;-63
2024/02/22 11:45:29;;;;;;;0.80;0.70;;;11.40;87.60;;;;;;4985872;28;20038;-63
2024/02/22 11:47:55;;;;;;;0.50;0.50;;;11.40;87.80;;;;;;4988409;28;20073;-63
2024/02/22 11:50:21;;;;;;;0.77;0.50;;;11.40;87.50;;;;;;4986600;28;20390;-63
2024/02/22 11:52:48;;;;;;;0.55;0.52;;;11.40;87.60;;;;;;4988016;28;20041;-63
2024/02/22 11:55:14;;;;;;;1.38;0.50;;;11.40;87.80;;;;;;4986204;28;20350;-63
2024/02/22 11:57:40;;;;;;;0.50;0.50;;;11.40;87.60;;;;;;4987776;28;20026;-63
2024/02/22 12:00:06;;;;;;;0.60;0.60;;;11.40;87.50;;;;;;4987702;28;20034;-63
2024/02/22 12:02:35;;;;;;;1.40;0.70;;;11.40;87.60;;;;;;4986184;28;20506;-63
2024/02/22 12:05:06;;;;;;;0.60;0.50;;;11.40;87.80;;;;;;4987578;28;20119;-63
2024/02/22 12:07:33;;;;;;;0.47;0.47;;;11.40;88.00;;;;;;4990076;28;20034;-63
2024/02/22 12:09:59;;;;;;;0.95;0.60;;;11.40;87.90;;;;;;4990383;28;20034;-63
2024/02/22 12:12:27;;;;;;;1.23;0.50;;;11.40;87.80;;;;;;4987914;28;20039;-63
2024/02/22 12:14:58;;;;;;;0.65;0.60;;;11.40;87.90;;;;;;4983496;28;20112;-62
2024/02/22 12:17:25;;;;;;;0.40;0.30;;;11.40;87.80;;;;;;4989106;28;20121;-60
2024/02/22 12:19:53;;;;;;;0.50;0.45;;;11.40;87.50;;;;;;4991971;28;20100;-63
2024/02/22 12:22:19;;;;;;;0.40;0.40;;;11.30;87.80;;;;;;4987541;28;20525;-63
2024/02/22 12:24:47;;;;;;;0.38;0.30;;;11.40;87.70;;;;;;4984915;28;20039;-63
2024/02/22 12:27:14;;;;;;;0.40;0.35;;;11.40;87.60;;;;;;4987989;28;20038;-62
2024/02/22 12:29:40;;;;;;;0.40;0.40;;;11.40;87.50;;;;;;4985558;28;20038;-63
2024/02/22 12:32:06;;;;;;;0.47;0.35;;;11.40;87.60;;;;;;4986335;28;20035;-63
2024/02/22 12:34:32;;;;;;;0.47;0.40;;;11.40;87.60;;;;;;4987986;28;20035;-63
2024/02/22 12:36:58;;;;;;;0.30;0.25;;;11.40;87.30;;;;;;4986254;28;20038;-63
2024/02/22 12:39:25;;;;;;;0.68;0.30;;;11.40;87.60;;;;;;4986612;28;20045;-62
2024/02/22 12:41:50;;;;;;;0.40;0.40;;;11.40;87.50;;;;;;4986434;28;20528;-63
2024/02/22 12:44:16;;;;;;;0.30;0.28;;;11.40;87.80;;;;;;4988091;28;20061;-63